Time;durP1;ratioP1;P1;durP2;ratioP2;P2;SDS_P1;SDS_P2;PMS_P1;PMS_P2;Temp;Humidity;BMP_temperature;BMP_pressure;BME280_temperature;BME280_humidity;BME280_pressure;Samples;Min_cycle;Max_cycle;Signal;HPM_P1;HPM_P2
2023/01/14 00:01:49;;;;;;;87.95;62.00;;;;;;;5.88;74.99;101695.34;5035741;28;20191;-78
2023/01/14 00:04:15;;;;;;;97.97;63.33;;;;;;;5.81;75.55;101699.22;5039138;28;20133;-79
2023/01/14 00:06:42;;;;;;;99.93;63.00;;;;;;;5.65;75.63;101671.00;5029289;28;20040;-80
2023/01/14 00:09:15;;;;;;;92.30;60.60;;;;;;;5.62;76.04;101676.44;5034281;28;20095;-79
2023/01/14 00:11:49;;;;;;;93.80;61.75;;;;;;;5.74;76.31;101703.94;5031673;28;20075;-78
2023/01/14 00:14:20;;;;;;;97.97;61.08;;;;;;;5.32;76.25;101647.25;5028460;28;20041;-79
2023/01/14 00:16:52;;;;;;;92.32;60.65;;;;;;;5.61;76.76;101685.28;5030190;28;20684;-80
2023/01/14 00:19:23;;;;;;;85.60;58.55;;;;;;;5.77;76.87;101699.38;5024927;28;20407;-78
2023/01/14 00:21:54;;;;;;;94.78;59.28;;;;;;;5.88;76.85;101724.34;5029743;28;20522;-80
2023/01/14 00:24:23;;;;;;;85.72;58.17;;;;;;;5.68;76.65;101675.28;5030270;28;20072;-79
2023/01/14 00:26:53;;;;;;;87.00;56.28;;;;;;;5.89;76.60;101712.84;5026267;28;20111;-80
2023/01/14 00:29:23;;;;;;;95.00;59.60;;;;;;;5.94;76.46;101721.41;5029445;28;20547;-79
2023/01/14 00:31:54;;;;;;;88.95;57.53;;;;;;;5.70;76.15;101684.78;5023643;28;20571;-76
2023/01/14 00:34:21;;;;;;;92.13;60.08;;;;;;;6.01;76.73;101724.59;5022532;28;20132;-78
2023/01/14 00:36:51;;;;;;;96.43;58.90;;;;;;;6.01;76.88;101716.66;5029860;28;20052;-81
2023/01/14 00:39:17;;;;;;;91.70;59.05;;;;;;;6.01;76.55;101717.53;5047952;28;20057;-78
2023/01/14 00:41:46;;;;;;;98.65;58.72;;;;;;;5.91;76.74;101698.66;5041637;28;20041;-80
2023/01/14 00:44:14;;;;;;;89.65;57.88;;;;;;;4.86;76.58;101524.06;5042027;28;20559;-78
2023/01/14 00:46:43;;;;;;;84.28;57.53;;;;;;;5.39;76.86;101616.19;5045603;28;20040;-78
2023/01/14 00:49:19;;;;;;;88.47;56.42;;;;;;;6.15;76.72;101740.53;5044604;28;20418;-77
2023/01/14 00:51:47;;;;;;;79.57;51.40;;;;;;;6.17;76.83;101739.53;5035381;28;20139;-77
2023/01/14 00:54:14;;;;;;;79.10;51.78;;;;;;;6.21;75.96;101734.94;5043947;28;20379;-79
2023/01/14 00:56:41;;;;;;;77.25;47.72;;;;;;;6.28;76.39;101730.19;5048673;28;20086;-78
2023/01/14 00:59:17;;;;;;;69.88;43.58;;;;;;;6.28;75.83;101719.63;5046584;28;20055;-81
2023/01/14 01:01:45;;;;;;;65.05;42.28;;;;;;;6.23;75.26;101700.56;5053095;28;20425;-79
2023/01/14 01:04:12;;;;;;;61.35;41.17;;;;;;;5.89;74.89;101644.31;5026169;28;20394;-79
2023/01/14 01:06:40;;;;;;;62.92;39.90;;;;;;;6.39;74.75;101717.28;5046403;28;20405;-77
2023/01/14 01:09:06;;;;;;;59.63;39.55;;;;;;;6.47;74.47;101720.34;5043324;28;20465;-78
2023/01/14 01:11:35;;;;;;;59.53;39.75;;;;;;;6.51;74.34;101721.06;5026546;28;20040;-78
2023/01/14 01:14:01;;;;;;;60.38;37.83;;;;;;;6.52;73.94;101713.03;5024957;28;20052;-77
2023/01/14 01:16:29;;;;;;;56.70;37.50;;;;;;;6.13;73.70;101640.41;5009568;28;20170;-79
2023/01/14 01:18:57;;;;;;;60.60;39.65;;;;;;;6.44;73.65;101686.25;4979409;28;20387;-77
2023/01/14 01:21:25;;;;;;;58.05;37.75;;;;;;;6.55;73.17;101699.72;4991962;28;20269;-78
2023/01/14 01:23:54;;;;;;;60.33;38.17;;;;;;;6.04;72.82;101611.91;5044616;28;20052;-79
2023/01/14 01:26:24;;;;;;;61.40;39.08;;;;;;;6.12;72.66;101598.34;5035303;28;20057;-78
2023/01/14 01:28:54;;;;;;;58.40;38.90;;;;;;;6.58;72.63;101675.78;5033089;28;20264;-78
2023/01/14 01:31:21;;;;;;;68.72;41.65;;;;;;;6.78;72.23;101692.31;5039818;28;20073;-77
2023/01/14 01:33:49;;;;;;;57.72;39.47;;;;;;;6.78;72.23;101690.50;5036146;28;20052;-79
2023/01/14 01:36:20;;;;;;;63.72;42.28;;;;;;;6.49;72.18;101634.06;5028772;28;20807;-78
2023/01/14 01:38:47;;;;;;;67.25;46.85;;;;;;;6.91;71.28;101681.91;5020200;28;20383;-77
2023/01/14 01:41:17;;;;;;;78.53;49.88;;;;;;;6.93;71.23;101688.81;5012860;28;20174;-77
2023/01/14 01:43:57;;;;;;;83.63;47.03;;;;;;;7.00;70.84;101692.78;5017714;28;20049;-78
2023/01/14 01:46:23;;;;;;;92.45;57.05;;;;;;;6.98;70.85;101699.09;5018252;28;20270;-80
2023/01/14 01:48:51;;;;;;;95.68;58.05;;;;;;;6.81;70.30;101677.13;5012046;28;20131;-80
2023/01/14 01:51:25;;;;;;;92.80;55.95;;;;;;;7.09;71.15;101709.91;5020200;28;20041;-78
2023/01/14 01:53:55;;;;;;;89.90;56.60;;;;;;;7.07;71.18;101710.00;5011598;28;20394;-79
2023/01/14 01:56:27;;;;;;;73.35;46.28;;;;;;;7.18;71.81;101695.31;5011645;28;20060;-78
2023/01/14 01:58:56;;;;;;;93.95;55.28;;;;;;;7.57;70.99;101729.16;5012946;28;20084;-78
2023/01/14 02:01:23;;;;;;;98.57;56.05;;;;;;;7.65;69.67;101731.38;5016827;28;20539;-79
2023/01/14 02:04:22;;;;;;;93.07;55.47;;;;;;;7.55;69.34;101730.19;5007770;28;20192;-78
2023/01/14 02:06:50;;;;;;;90.82;56.53;;;;;;;7.44;68.65;101734.31;5048010;28;20513;-79
2023/01/14 02:09:21;;;;;;;97.38;56.42;;;;;;;7.30;69.25;101723.69;5050284;28;20518;-78
2023/01/14 02:12:03;;;;;;;80.72;51.90;;;;;;;7.32;69.33;101713.03;5047601;28;20048;-78
2023/01/14 02:14:33;;;;;;;;;;;;;;;7.22;69.05;101718.00;5041638;28;20335;-79
2023/01/14 02:17:31;;;;;;;95.15;55.92;;;;;;;6.63;69.65;101657.91;5042402;28;20098;-76
2023/01/14 02:20:22;;;;;;;92.47;56.83;;;;;;;6.96;69.81;101733.50;5027467;28;20044;-77
2023/01/14 02:23:09;;;;;;;91.03;54.38;;;;;;;6.84;69.98;101729.78;5038704;28;20052;-80
2023/01/14 02:26:04;;;;;;;81.97;53.25;;;;;;;6.71;70.43;101735.81;5045875;28;20059;-79
2023/01/14 02:28:54;;;;;;;87.00;53.13;;;;;;;6.64;70.65;101736.13;5032191;28;20561;-80
2023/01/14 02:31:32;;;;;;;94.70;54.25;;;;;;;6.05;70.99;101650.53;5014721;28;20425;-79
2023/01/14 02:34:17;;;;;;;95.25;53.45;;;;;;;6.52;71.30;101734.16;5038566;28;20507;-79
2023/01/14 02:36:53;;;;;;;81.57;51.97;;;;;;;6.42;71.69;101725.03;5041410;28;20124;-78
2023/01/14 02:39:46;;;;;;;86.70;52.05;;;;;;;6.29;72.35;101726.63;5027512;28;20604;-77
2023/01/14 02:45:26;;;;;;;86.15;51.65;;;;;;;6.32;72.32;101737.00;5023960;28;20056;-78
2023/01/14 02:47:53;;;;;;;89.05;51.90;;;;;;;6.37;72.89;101741.09;5033646;28;20269;-78
2023/01/14 02:50:20;;;;;;;87.70;52.67;;;;;;;6.55;72.46;101743.69;5016680;28;20052;-80
2023/01/14 02:52:47;;;;;;;88.13;53.92;;;;;;;6.47;72.52;101730.91;5022073;28;20076;-80
2023/01/14 02:55:28;;;;;;;95.35;54.88;;;;;;;6.18;72.25;101658.63;5034226;28;20395;-77
2023/01/14 02:58:23;;;;;;;88.80;52.20;;;;;;;6.62;72.12;101751.19;5019300;28;20041;-78
2023/01/14 03:01:00;;;;;;;90.22;54.83;;;;;;;6.57;72.28;101737.38;5019116;28;20307;-79
2023/01/14 03:03:35;;;;;;;99.13;57.92;;;;;;;6.57;72.91;101737.38;5020946;28;20560;-77
2023/01/14 03:06:34;;;;;;;97.70;55.60;;;;;;;6.53;72.57;101730.59;5023729;28;20370;-79
2023/01/14 03:09:15;;;;;;;95.05;55.47;;;;;;;6.39;72.80;101706.75;5041682;28;20131;-78
2023/01/14 03:12:03;;;;;;;94.07;57.08;;;;;;;5.75;72.97;101616.94;5024171;28;20120;-81
2023/01/14 03:14:45;;;;;;;99.80;55.42;;;;;;;6.40;72.93;101732.16;5012472;28;20048;-78
2023/01/14 03:17:34;;;;;;;98.13;59.47;;;;;;;6.29;73.13;101734.53;5034802;28;20049;-78
2023/01/14 03:20:08;;;;;;;91.20;55.13;;;;;;;6.36;73.27;101739.41;5041973;28;20141;-79
2023/01/14 03:22:37;;;;;;;97.90;58.25;;;;;;;6.36;72.97;101735.91;5034386;28;20567;-79
2023/01/14 03:25:06;;;;;;;105.93;56.80;;;;;;;6.27;73.46;101725.88;5033949;28;20049;-79
2023/01/14 03:27:36;;;;;;;106.63;59.10;;;;;;;5.89;73.02;101670.69;5027661;28;20372;-79
2023/01/14 03:30:08;;;;;;;106.40;60.60;;;;;;;5.98;73.34;101693.97;5020390;28;20419;-81
2023/01/14 03:32:50;;;;;;;116.03;58.00;;;;;;;6.27;73.28;101755.72;5016596;28;20288;-78
2023/01/14 03:35:31;;;;;;;104.63;57.78;;;;;;;6.22;73.15;101736.66;5019623;28;20049;-80
2023/01/14 03:38:16;;;;;;;108.70;56.92;;;;;;;6.27;73.16;101760.16;5021063;28;20111;-78
2023/01/14 03:40:46;;;;;;;98.00;55.53;;;;;;;6.16;73.22;101756.25;5031180;28;20128;-79
2023/01/14 03:43:29;;;;;;;93.43;56.42;;;;;;;6.22;73.54;101762.16;5027652;28;20574;-78
2023/01/14 03:45:56;;;;;;;99.32;54.95;;;;;;;6.44;72.95;101768.00;5035566;28;20059;-77
2023/01/14 03:48:26;;;;;;;163.20;92.97;;;;;;;6.28;72.74;101748.66;5032473;28;20045;-79
2023/01/14 03:51:22;;;;;;;95.65;56.78;;;;;;;6.35;72.46;101773.78;5039926;28;20151;-78
2023/01/14 03:54:07;;;;;;;100.00;55.20;;;;;;;6.35;72.64;101784.31;5036403;28;20049;-81
2023/01/14 03:56:39;;;;;;;99.45;54.20;;;;;;;6.20;73.10;101771.00;5021935;28;20134;-77
2023/01/14 03:59:20;;;;;;;90.80;54.13;;;;;;;6.28;73.39;101782.94;5010930;28;20041;-78
2023/01/14 04:01:55;;;;;;;90.90;53.65;;;;;;;6.14;73.59;101770.44;4986047;28;20450;-79
2023/01/14 04:04:29;;;;;;;93.47;52.50;;;;;;;6.15;73.32;101767.75;4978053;28;20075;-80
2023/01/14 04:06:56;;;;;;;94.03;51.75;;;;;;;5.86;73.39;101736.72;4990471;28;20102;-79
2023/01/14 04:09:26;;;;;;;90.35;51.60;;;;;;;6.08;73.09;101787.44;4963322;28;20045;-80
2023/01/14 04:11:53;;;;;;;90.68;50.08;;;;;;;6.18;73.58;101804.50;4993697;28;20415;-78
2023/01/14 04:17:07;;;;;;;86.45;47.83;;;;;;;6.07;72.90;101798.94;4978020;28;20453;-79
2023/01/14 04:19:37;;;;;;;85.00;49.92;;;;;;;6.00;72.58;101789.63;4969145;28;20103;-79
2023/01/14 04:22:12;;;;;;;83.60;49.40;;;;;;;5.83;72.51;101771.16;4993950;28;20403;-80
2023/01/14 04:24:41;;;;;;;82.72;50.70;;;;;;;5.84;72.95;101799.19;4977286;28;20048;-78
2023/01/14 04:27:13;;;;;;;76.53;47.08;;;;;;;5.91;73.13;101822.53;4989069;28;20429;-79
2023/01/14 04:29:49;;;;;;;94.38;53.97;;;;;;;5.74;72.94;101790.91;4971631;28;20140;-78
2023/01/14 04:32:20;;;;;;;94.28;53.55;;;;;;;5.73;72.97;101776.88;4991771;28;20664;-81
2023/01/14 04:34:47;;;;;;;100.55;52.97;;;;;;;5.26;72.67;101698.41;4974814;28;20098;-79
2023/01/14 04:37:13;;;;;;;94.05;53.88;;;;;;;5.46;72.28;101747.50;4994370;28;20072;-78
2023/01/14 04:39:40;;;;;;;88.93;54.80;;;;;;;5.73;72.14;101763.72;4992486;28;20412;-77
2023/01/14 04:42:26;;;;;;;93.95;53.88;;;;;;;5.86;71.53;101800.00;4978150;28;20063;-77
2023/01/14 04:45:03;;;;;;;95.15;56.10;;;;;;;5.63;71.46;101777.41;4997025;28;20455;-78
2023/01/14 04:47:33;;;;;;;92.55;56.55;;;;;;;5.73;71.53;101821.69;4983401;28;20333;-77
2023/01/14 04:50:30;;;;;;;95.85;56.45;;;;;;;5.79;72.02;101838.97;4994936;28;20506;-76
2023/01/14 04:52:52;;;;;;;92.53;53.95;;;;;;;5.61;71.93;101835.44;4996886;28;20064;-79
2023/01/14 04:55:21;;;;;;;94.78;54.60;;;;;;;5.59;72.00;101839.09;4993449;28;20075;-79
2023/01/14 04:57:50;;;;;;;86.75;55.13;;;;;;;5.52;72.12;101843.78;4991994;28;20289;-77
2023/01/14 05:00:21;;;;;;;85.20;52.35;;;;;;;5.49;72.74;101825.50;4983103;28;20437;-79
2023/01/14 05:02:48;;;;;;;94.70;56.35;;;;;;;5.39;72.08;101803.16;4993225;28;20455;-78
2023/01/14 05:05:16;;;;;;;92.35;54.88;;;;;;;5.31;72.52;101808.78;4995787;28;20460;-80
2023/01/14 05:07:43;;;;;;;92.72;56.05;;;;;;;5.24;72.09;101818.78;4992307;28;20063;-78
2023/01/14 05:10:10;;;;;;;88.57;55.83;;;;;;;5.15;73.13;101832.38;4977188;28;20049;-79
2023/01/14 05:12:36;;;;;;;90.82;56.05;;;;;;;4.84;73.79;101796.06;4979896;28;20796;-80
2023/01/14 05:15:05;;;;;;;94.95;56.85;;;;;;;4.83;74.26;101795.22;4983981;28;20165;-80
2023/01/14 05:17:36;;;;;;;;;;;;;;;4.93;75.24;101828.09;4995789;28;20052;-79
2023/01/14 05:20:08;;;;;;;101.20;54.97;;;;;;;4.63;74.98;101779.47;4993767;28;19932;-80
2023/01/14 05:22:40;;;;;;;89.85;53.85;;;;;;;4.83;75.13;101810.13;4984651;28;20154;-78
2023/01/14 05:25:11;;;;;;;95.28;50.67;;;;;;;4.87;75.51;101812.56;4991753;28;20342;-80
2023/01/14 05:27:42;;;;;;;95.57;56.45;;;;;;;4.95;75.26;101824.53;4979503;28;20132;-78
2023/01/14 05:30:10;;;;;;;91.77;53.83;;;;;;;3.36;75.23;101565.25;4979782;28;20052;-77
2023/01/14 05:32:36;;;;;;;80.35;50.28;;;;;;;4.93;75.57;101832.50;4992848;28;20350;-81
2023/01/14 05:35:08;;;;;;;87.18;53.88;;;;;;;4.87;75.78;101817.81;4988302;28;20048;-78
2023/01/14 05:37:35;;;;;;;89.28;54.63;;;;;;;4.92;76.02;101823.72;4976898;28;20057;-78
2023/01/14 05:40:02;;;;;;;102.22;53.97;;;;;;;4.86;75.58;101816.13;4979007;28;20118;-79
2023/01/14 05:45:41;;;;;;;81.50;49.00;;;;;;;4.99;75.60;101847.16;4999993;28;20045;-79
2023/01/14 05:48:12;;;;;;;87.18;48.90;;;;;;;4.95;74.72;101819.25;5001136;28;20207;-78
2023/01/14 05:50:41;;;;;;;85.63;46.42;;;;;;;5.13;74.60;101840.31;5006807;28;20494;-80
2023/01/14 05:53:11;;;;;;;76.30;46.67;;;;;;;5.72;74.52;101870.00;5023936;28;20048;-80
2023/01/14 05:55:44;;;;;;;78.25;45.83;;;;;;;5.40;72.46;101820.69;5005472;28;20114;-79
2023/01/14 05:58:14;;;;;;;70.38;45.17;;;;;;;4.31;72.43;101676.63;4995017;28;20094;-81
2023/01/14 06:06:39;;;;;;;74.57;46.97;;;;;;;4.77;72.89;101826.22;5004784;28;20136;-79
2023/01/14 06:09:10;;;;;;;87.00;49.97;;;;;;;4.34;73.18;101772.91;4976725;28;20049;-78
2023/01/14 06:11:50;;;;;;;85.63;49.42;;;;;;;4.93;73.72;101880.72;4991440;28;20278;-78
2023/01/14 06:14:18;;;;;;;86.28;49.15;;;;;;;4.93;73.68;101896.50;5008524;28;20937;-78
2023/01/14 06:16:51;;;;;;;77.43;47.58;;;;;;;4.81;74.07;101877.78;4995703;28;20507;-78
2023/01/14 06:19:18;;;;;;;88.78;51.30;;;;;;;4.59;73.96;101859.47;4975753;28;20629;-78
2023/01/14 06:21:45;;;;;;;77.82;47.30;;;;;;;4.71;74.49;101895.75;4988246;28;20137;-77
2023/01/14 06:24:16;;;;;;;79.65;49.40;;;;;;;4.69;74.74;101887.91;4978589;28;20410;-79
2023/01/14 06:26:47;;;;;;;82.95;49.13;;;;;;;4.62;74.88;101875.97;5002003;28;20126;-79
2023/01/14 06:29:15;;;;;;;81.25;46.53;;;;;;;4.77;74.08;101900.72;4991842;28;20697;-80
2023/01/14 06:31:42;;;;;;;88.38;49.67;;;;;;;4.36;74.16;101848.16;5010071;28;20272;-79
2023/01/14 06:34:13;;;;;;;81.50;49.13;;;;;;;4.60;74.80;101908.50;4986423;28;20481;-80
2023/01/14 06:36:45;;;;;;;74.85;48.95;;;;;;;4.43;74.70;101896.09;5007554;28;20571;-77
2023/01/14 06:39:12;;;;;;;78.28;48.90;;;;;;;4.46;75.41;101917.81;5000697;28;20063;-78
2023/01/14 06:41:43;;;;;;;79.75;47.47;;;;;;;4.48;75.94;101902.00;5006210;28;20108;-79
2023/01/14 06:44:17;;;;;;;82.18;48.83;;;;;;;4.28;75.96;101858.16;5023012;28;20430;-79
2023/01/14 06:46:50;;;;;;;70.95;44.55;;;;;;;4.48;75.86;101894.94;5029079;28;20163;-79
2023/01/14 06:49:25;;;;;;;78.72;47.10;;;;;;;4.42;76.08;101889.13;5009112;28;20547;-78
2023/01/14 06:51:51;;;;;;;77.13;45.35;;;;;;;4.48;76.70;101899.38;5025204;28;20311;-79
2023/01/14 06:54:18;;;;;;;67.85;42.35;;;;;;;4.63;76.45;101914.47;4992522;28;20470;-78
2023/01/14 06:56:49;;;;;;;78.15;44.15;;;;;;;4.81;76.64;101923.38;4996537;28;20045;-79
2023/01/14 06:59:17;;;;;;;74.20;40.85;;;;;;;4.84;75.79;101928.47;4996168;28;20052;-76
2023/01/14 07:01:47;;;;;;;70.82;42.42;;;;;;;4.76;75.95;101929.72;4997553;28;20048;-78
2023/01/14 07:04:14;;;;;;;69.00;40.00;;;;;;;4.49;77.28;101907.19;4985954;28;20132;-79
2023/01/14 07:06:45;;;;;;;67.63;40.92;;;;;;;4.66;77.34;101934.53;4999460;28;20418;-80
2023/01/14 07:09:24;;;;;;;62.63;37.10;;;;;;;4.70;77.73;101933.50;4982805;28;20053;-79
2023/01/14 07:11:52;;;;;;;57.45;33.92;;;;;;;4.61;77.71;101911.09;4968958;28;20052;-79
2023/01/14 07:14:24;;;;;;;49.47;31.52;;;;;;;4.88;78.13;101943.22;4964403;28;20037;-80
2023/01/14 07:17:05;;;;;;;49.45;30.33;;;;;;;5.03;78.29;101943.47;5000148;28;20072;-80
2023/01/14 07:19:33;;;;;;;56.92;30.38;;;;;;;5.11;77.94;101944.84;5015033;28;20079;-77
2023/01/14 07:22:09;;;;;;;64.88;31.52;;;;;;;5.18;77.79;101958.59;4990773;28;20048;-79
2023/01/14 07:24:37;;;;;;;50.20;31.45;;;;;;;5.21;77.81;101962.84;5014511;28;20394;-78
2023/01/14 07:27:09;;;;;;;52.10;31.27;;;;;;;5.20;77.44;101972.53;4983409;28;20275;-79
2023/01/14 07:29:40;;;;;;;51.00;32.47;;;;;;;4.90;77.20;101930.88;4990520;28;20323;-79
2023/01/14 07:32:09;;;;;;;53.78;31.73;;;;;;;5.25;77.84;101983.72;5001045;28;20040;-78
2023/01/14 07:34:41;;;;;;;56.28;32.30;;;;;;;5.11;77.54;101949.25;5005655;28;20053;-79
2023/01/14 07:37:08;;;;;;;56.65;32.08;;;;;;;4.66;77.20;101887.19;4980710;28;20047;-80
2023/01/14 07:39:40;;;;;;;59.05;33.78;;;;;;;5.25;77.34;101981.09;4999381;28;20570;-80
2023/01/14 07:42:20;;;;;;;51.97;33.38;;;;;;;5.19;77.77;101980.50;4987142;28;20329;-79
2023/01/14 07:44:47;;;;;;;54.38;32.80;;;;;;;4.98;77.27;101929.69;5001809;28;20191;-80
2023/01/14 07:47:22;;;;;;;;;;;;;;;5.34;77.36;101996.47;4984265;28;20057;-80
2023/01/14 07:49:57;;;;;;;61.15;33.53;;;;;;;5.31;77.67;101978.16;5013993;28;20466;-77
2023/01/14 07:52:32;;;;;;;60.85;34.63;;;;;;;5.31;77.58;101965.00;5032295;28;20040;-79
2023/01/14 07:54:59;;;;;;;60.53;34.40;;;;;;;5.52;77.20;101975.50;5025449;28;20052;-77
2023/01/14 07:57:26;;;;;;;61.97;34.53;;;;;;;5.12;76.85;101891.28;5032357;28;20247;-78
2023/01/14 07:59:52;;;;;;;68.93;37.28;;;;;;;5.25;76.85;101917.88;5040030;28;20071;-80
2023/01/14 08:02:19;;;;;;;63.35;36.63;;;;;;;5.73;76.57;101978.94;5032026;28;20067;-79
2023/01/14 08:04:46;;;;;;;63.38;37.42;;;;;;;5.81;75.87;101962.75;5035811;28;20410;-76
2023/01/14 08:07:18;;;;;;;58.20;36.97;;;;;;;5.60;76.33;101938.25;5031426;28;20080;-78
2023/01/14 08:09:44;;;;;;;59.10;34.92;;;;;;;5.65;75.88;101954.69;5028841;28;20080;-78
2023/01/14 08:12:14;;;;;;;63.00;37.15;;;;;;;5.53;75.79;101935.03;5028564;28;20397;-79
2023/01/14 08:14:41;;;;;;;57.28;34.33;;;;;;;5.74;76.36;101984.09;4998345;28;20051;-79
2023/01/14 08:17:07;;;;;;;50.03;31.13;;;;;;;5.81;76.36;101997.00;5010817;28;20044;-78
2023/01/14 08:19:34;;;;;;;66.20;34.20;;;;;;;5.63;76.40;101972.34;4998424;28;20048;-77
2023/01/14 08:22:05;;;;;;;52.40;31.10;;;;;;;5.58;76.87;101962.03;4995976;28;20419;-80
2023/01/14 08:24:32;;;;;;;50.20;27.95;;;;;;;5.82;76.80;102001.34;5006497;28;20137;-80
2023/01/14 08:26:58;;;;;;;42.58;25.83;;;;;;;5.64;76.72;101961.75;4993632;28;20874;-79
2023/01/14 08:29:25;;;;;;;54.08;25.23;;;;;;;5.95;77.14;102019.19;4992589;28;20476;-78
2023/01/14 08:32:03;;;;;;;44.45;24.88;;;;;;;5.96;77.10;102014.78;4992359;28;20146;-80
2023/01/14 08:34:32;;;;;;;46.35;25.35;;;;;;;6.13;76.97;102038.56;4993094;28;20053;-78
2023/01/14 08:37:05;;;;;;;41.30;23.95;;;;;;;6.16;77.21;102035.75;5006072;28;20342;-81
2023/01/14 08:39:41;;;;;;;34.80;22.08;;;;;;;6.14;76.99;102019.19;5008067;28;20106;-79
2023/01/14 08:42:13;;;;;;;43.38;25.50;;;;;;;6.40;76.25;102041.66;4994565;28;20679;-80
2023/01/14 08:44:43;;;;;;;44.63;24.13;;;;;;;6.36;76.48;102024.28;4994385;28;20045;-78
2023/01/14 08:47:16;;;;;;;36.78;22.23;;;;;;;6.54;76.54;102032.22;4999614;28;20064;-79
2023/01/14 08:49:46;;;;;;;36.22;23.60;;;;;;;6.42;76.25;102005.50;4991172;28;20513;-77
2023/01/14 08:52:19;;;;;;;38.85;23.63;;;;;;;6.77;76.07;102057.47;4995498;28;20048;-77
2023/01/14 08:54:51;;;;;;;39.00;23.80;;;;;;;6.82;75.74;102058.06;5004494;28;20441;-79
2023/01/14 08:57:20;;;;;;;45.20;24.65;;;;;;;7.03;75.81;102074.63;4995920;28;20291;-77
2023/01/14 08:59:54;;;;;;;49.88;26.13;;;;;;;7.17;75.27;102072.16;4995227;28;20398;-79
2023/01/14 09:02:23;;;;;;;42.47;24.98;;;;;;;7.26;74.68;102078.75;4997111;28;20078;-77
2023/01/14 09:04:50;;;;;;;42.42;27.13;;;;;;;7.37;74.67;102078.19;4989776;28;20518;-77
2023/01/14 09:19:05;;;;;;;59.05;32.40;;;;;;;7.76;73.68;102098.19;4979763;28;20048;-80
2023/01/14 09:21:39;;;;;;;58.08;31.80;;;;;;;8.06;72.87;102101.81;4983119;28;20052;-78
2023/01/14 09:24:15;;;;;;;57.85;32.97;;;;;;;8.19;72.57;102099.34;4981743;28;20147;-79
2023/01/14 09:26:48;;;;;;;49.90;31.65;;;;;;;8.31;71.86;102096.03;4975640;28;20137;-78
2023/01/14 09:29:35;;;;;;;38.67;21.70;;;;;;;8.43;71.76;102094.53;4985531;28;20052;-80
2023/01/14 09:32:27;;;;;;;45.53;25.13;;;;;;;8.34;71.04;102042.94;4989674;28;20617;-79
2023/01/14 09:35:12;;;;;;;43.03;25.15;;;;;;;8.93;70.86;102100.50;4973238;28;20306;-80
2023/01/14 09:37:50;;;;;;;55.03;31.42;;;;;;;9.02;69.83;102064.69;4978514;28;20057;-77
2023/01/14 09:40:40;;;;;;;46.22;29.75;;;;;;;9.25;69.14;102093.34;4997783;28;20266;-79
2023/01/14 09:43:23;;;;;;;38.03;22.98;;;;;;;9.46;68.40;102054.06;4972253;28;20131;-79
2023/01/14 09:46:02;;;;;;;41.20;23.67;;;;;;;9.47;67.41;102017.84;4979172;28;20232;-79
2023/01/14 09:48:49;;;;;;;38.88;24.60;;;;;;;9.82;67.40;102081.91;4955694;28;20161;-80
2023/01/14 09:52:03;;;;;;;50.30;28.83;;;;;;;9.67;67.13;102062.50;5015240;28;20132;-79
2023/01/14 09:54:49;;;;;;;60.88;34.58;;;;;;;9.71;67.30;102066.69;5001030;28;20073;-77
2023/01/14 09:57:28;;;;;;;43.03;25.75;;;;;;;9.65;67.03;102069.69;4995692;28;20060;-79
2023/01/14 10:00:04;;;;;;;50.55;30.48;;;;;;;9.68;67.42;102074.81;4987826;28;20320;-80
2023/01/14 10:02:52;;;;;;;45.00;25.20;;;;;;;9.81;67.72;102069.63;4967127;28;20067;-80
2023/01/14 10:05:42;;;;;;;45.83;27.20;;;;;;;10.19;66.07;102059.22;4994788;28;20110;-79
2023/01/14 10:08:24;;;;;;;55.13;30.42;;;;;;;9.79;64.54;101910.56;5000931;28;20048;-79
2023/01/14 10:11:07;;;;;;;52.00;29.33;;;;;;;10.42;64.72;102044.50;4984311;28;20392;-78
2023/01/14 10:13:57;;;;;;;72.78;41.40;;;;;;;9.92;64.31;101984.03;5007047;28;20052;-79
2023/01/14 10:16:50;;;;;;;63.67;37.28;;;;;;;9.95;65.61;102029.81;4989487;28;20244;-78
2023/01/14 10:19:37;;;;;;;62.45;36.72;;;;;;;9.91;65.81;102048.66;4994724;28;20428;-78
2023/01/14 10:22:35;;;;;;;72.78;42.72;;;;;;;9.91;66.06;102053.97;5001648;28;20139;-79
2023/01/14 10:25:23;;;;;;;49.88;28.13;;;;;;;9.94;66.68;102054.63;5000035;28;20267;-79
2023/01/14 10:28:04;;;;;;;69.18;39.75;;;;;;;10.05;65.98;102033.56;4991849;28;20445;-80
2023/01/14 10:30:41;;;;;;;65.88;37.33;;;;;;;10.21;65.47;102053.81;4995761;28;20107;-80
2023/01/14 10:33:17;;;;;;;51.88;31.40;;;;;;;10.52;65.25;102043.91;4981853;28;20124;-82
2023/01/14 10:35:59;;;;;;;52.05;31.25;;;;;;;10.52;65.26;102028.81;5004708;28;20451;-81
2023/01/14 10:38:45;;;;;;;53.65;32.95;;;;;;;10.43;64.68;102019.63;4998871;28;20411;-80
2023/01/14 10:44:25;;;;;;;80.40;43.25;;;;;;;10.36;64.71;102031.63;4977219;28;20309;-79
2023/01/14 10:46:56;;;;;;;70.28;39.72;;;;;;;10.31;64.45;102049.66;5029801;28;20595;-80
2023/01/14 10:49:55;;;;;;;48.50;29.27;;;;;;;10.49;64.46;102031.69;5004895;28;20382;-81
2023/01/14 10:52:34;;;;;;;47.90;28.65;;;;;;;10.94;63.48;102039.31;5014089;28;20041;-80
2023/01/14 10:55:04;;;;;;;52.58;31.45;;;;;;;10.51;63.28;101975.81;5013664;28;20067;-79
2023/01/14 10:57:51;;;;;;;81.53;48.33;;;;;;;10.81;63.09;102028.69;4991703;28;20167;-79
2023/01/14 11:00:36;;;;;;;52.03;30.10;;;;;;;10.79;63.62;102030.59;4994023;28;20258;-79
2023/01/14 11:03:23;;;;;;;49.35;32.47;;;;;;;10.79;63.66;102010.19;4997041;28;20063;-80
2023/01/14 11:06:07;;;;;;;72.40;46.10;;;;;;;10.64;63.61;101960.75;4994093;28;20071;-79
2023/01/14 11:08:50;;;;;;;78.38;45.28;;;;;;;10.60;63.27;101946.81;5001521;28;20046;-82
2023/01/14 11:11:22;;;;;;;79.22;47.90;;;;;;;11.04;63.45;101992.56;4991344;28;20094;-78
2023/01/14 11:13:55;;;;;;;76.05;47.58;;;;;;;11.04;62.00;101993.41;4994797;28;20234;-78
2023/01/14 11:16:24;;;;;;;73.15;47.15;;;;;;;11.09;62.29;101995.75;4989426;28;20608;-80
2023/01/14 11:19:03;;;;;;;64.63;36.53;;;;;;;10.74;62.48;101932.63;5014338;28;20127;-79
2023/01/14 11:21:53;;;;;;;54.88;34.50;;;;;;;11.44;62.10;101993.31;4995061;28;20062;-80
2023/01/14 11:24:45;;;;;;;64.53;39.38;;;;;;;11.41;61.35;101974.03;4999112;28;20044;-80
2023/01/14 11:27:21;;;;;;;54.45;34.15;;;;;;;11.05;61.92;101919.88;4997916;28;20497;-79
2023/01/14 11:29:54;;;;;;;78.35;44.58;;;;;;;11.11;61.18;101956.63;4985445;28;20113;-80
2023/01/14 11:32:29;;;;;;;74.00;44.13;;;;;;;10.91;61.97;101934.97;5011568;28;20294;-79
2023/01/14 11:35:03;;;;;;;49.55;32.35;;;;;;;11.20;62.19;101966.63;5024740;28;20755;-79
2023/01/14 11:37:48;;;;;;;56.33;34.17;;;;;;;11.41;61.91;101956.31;5025683;28;20044;-81
2023/01/14 11:43:29;;;;;;;52.72;32.25;;;;;;;11.47;61.22;101901.81;5017634;28;20048;-80
2023/01/14 11:46:12;;;;;;;46.67;33.28;;;;;;;11.27;61.02;101850.94;5013652;28;20048;-79
2023/01/14 11:49:25;;;;;;;48.95;30.67;;;;;;;11.61;60.94;101927.44;5008910;28;20418;-78
2023/01/14 11:51:57;;;;;;;54.47;31.38;;;;;;;11.48;61.69;101916.81;5040798;28;20040;-79
2023/01/14 11:54:34;;;;;;;56.72;35.65;;;;;;;11.20;61.49;101876.25;5022832;28;20040;-79
2023/01/14 11:57:15;;;;;;;53.55;34.17;;;;;;;11.37;61.87;101904.28;5016181;28;20064;-78
2023/01/14 11:59:49;;;;;;;50.35;30.20;;;;;;;11.52;61.49;101902.34;5012705;28;20052;-78
2023/01/14 12:02:29;;;;;;;44.15;29.30;;;;;;;11.35;60.26;101818.47;5008659;28;20040;-78
2023/01/14 12:05:15;;;;;;;42.22;28.25;;;;;;;11.83;60.30;101892.13;5011117;28;20064;-77
2023/01/14 12:07:44;;;;;;;47.80;29.20;;;;;;;11.77;60.59;101873.00;5018013;28;20635;-77
2023/01/14 12:10:26;;;;;;;40.22;28.13;;;;;;;11.62;60.81;101876.78;5016092;28;20369;-77
2023/01/14 12:19:17;;;;;;;51.65;30.85;;;;;;;11.81;60.16;101839.03;5014709;28;20063;-79
2023/01/14 12:22:23;;;;;;;43.22;27.42;;;;;;;11.62;60.00;101810.28;5018231;28;20640;-79
2023/01/14 12:25:07;;;;;;;42.80;28.38;;;;;;;11.73;60.23;101836.09;5022036;28;20109;-78
2023/01/14 12:28:01;;;;;;;41.20;27.52;;;;;;;11.94;60.36;101860.28;5010629;28;20071;-79
2023/01/14 12:30:50;;;;;;;40.53;27.33;;;;;;;11.67;60.38;101800.13;5023028;28;20386;-78